DEVICE NETWORK
Gateway Status
13 ESP · realtime ~1s · history 60s
Weather
WS-MOD-01
ONLINE
Actuator
ACT-MOD-01
OFFLINE
Mainboard L3
MB-L3-01
ONLINE
Mainboard L5
MB-L5-01
ONLINE
Remote AC
AC-REMOTE-01
OFFLINE
PZEM L3-01
PWR-L3-01
OFFLINE
PZEM L3-02
PWR-L3-02
OFFLINE
PZEM L3-03
PWR-L3-03
OFFLINE
PZEM L3-04
PWR-L3-04
OFFLINE
PZEM L5-01
PWR-L5-01
OFFLINE
PZEM L5-02
PWR-L5-02
OFFLINE
PZEM L5-03
PWR-L5-03
OFFLINE
PZEM L5-04
PWR-L5-04
OFFLINE
REPORT FILTER
DATABASE HISTORY
Periode & Sensor
REPORT RESULT
Data Sensor
08/08/2026 — 06/09/2026
EXPORT CSV
| NO | TANGGAL | WAKTU | DEVICE | CHANNEL | SENSOR | VALUE | UNIT |
|---|---|---|---|---|---|---|---|
| 1801 | 06/09/2026 | 10:26:00 | MB-L5-01Mainboard Lantai 5 | L5-HFT-02 | Heat Flow Temperature 2 | 28.00 | °C |
| 1802 | 06/09/2026 | 10:26:00 | MB-L5-01Mainboard Lantai 5 | L5-SHT-03-T | SHT20 3 Temperature | 29.30 | °C |
| 1803 | 06/09/2026 | 10:26:00 | MB-L5-01Mainboard Lantai 5 | L5-AI-01 | Analog Input 1 | 3.05 | V |
| 1804 | 06/09/2026 | 10:26:00 | MB-L5-01Mainboard Lantai 5 | L5-LUX-03 | Illuminance / LUX 3 | 968.90 | lux |
| 1805 | 06/09/2026 | 10:26:00 | MB-L5-01Mainboard Lantai 5 | L5-SHT-01-RH | SHT20 1 Humidity | 38.50 | %RH |
| 1806 | 06/09/2026 | 10:26:00 | MB-L5-01Mainboard Lantai 5 | L5-AI-02 | Analog Input 2 | 3.05 | V |
| 1807 | 06/09/2026 | 10:26:00 | MB-L5-01Mainboard Lantai 5 | L5-RAD-01 | Radiation 1 | 4.00 | W/m² |
| 1808 | 06/09/2026 | 10:26:00 | MB-L5-01Mainboard Lantai 5 | L5-AI-03 | Analog Input 3 | 3.05 | V |
| 1809 | 06/09/2026 | 10:26:00 | MB-L5-01Mainboard Lantai 5 | L5-AI-04 | Analog Input 4 | 3.05 | V |
| 1810 | 06/09/2026 | 10:26:00 | MB-L5-01Mainboard Lantai 5 | L5-AI-05 | Analog Input 5 | 3.05 | V |
| 1811 | 06/09/2026 | 10:26:00 | MB-L5-01Mainboard Lantai 5 | L5-LUX-01 | Illuminance / LUX 1 | 616.90 | lux |
| 1812 | 06/09/2026 | 10:26:00 | MB-L5-01Mainboard Lantai 5 | L5-SHT-03-RH | SHT20 3 Humidity | 39.70 | %RH |
| 1813 | 06/09/2026 | 10:26:00 | MB-L5-01Mainboard Lantai 5 | L5-AI-06 | Analog Input 6 | 3.05 | V |
| 1814 | 06/09/2026 | 10:26:00 | MB-L5-01Mainboard Lantai 5 | L5-SHT-02-RH | SHT20 2 Humidity | 39.70 | %RH |
| 1815 | 06/09/2026 | 10:26:00 | MB-L5-01Mainboard Lantai 5 | L5-LUX-05 | Illuminance / LUX 5 | 1,845.00 | lux |
| 1816 | 06/09/2026 | 10:26:00 | MB-L5-01Mainboard Lantai 5 | L5-LUX-02 | Illuminance / LUX 2 | 2,508.60 | lux |
| 1817 | 06/09/2026 | 10:26:00 | MB-L5-01Mainboard Lantai 5 | L5-BGT-01 | Black Globe Temperature 1 | 27.30 | °C |
| 1818 | 06/09/2026 | 10:26:00 | MB-L5-01Mainboard Lantai 5 | L5-RAD-02 | Radiation 2 | 4.00 | W/m² |
| 1819 | 06/09/2026 | 10:25:00 | MB-L5-01Mainboard Lantai 5 | L5-AI-01 | Analog Input 1 | 3.05 | V |
| 1820 | 06/09/2026 | 10:25:00 | MB-L5-01Mainboard Lantai 5 | L5-LUX-03 | Illuminance / LUX 3 | 961.20 | lux |
| 1821 | 06/09/2026 | 10:25:00 | MB-L5-01Mainboard Lantai 5 | L5-SHT-01-RH | SHT20 1 Humidity | 38.70 | %RH |
| 1822 | 06/09/2026 | 10:25:00 | MB-L5-01Mainboard Lantai 5 | L5-AI-02 | Analog Input 2 | 3.05 | V |
| 1823 | 06/09/2026 | 10:25:00 | MB-L5-01Mainboard Lantai 5 | L5-RAD-01 | Radiation 1 | 4.00 | W/m² |
| 1824 | 06/09/2026 | 10:25:00 | MB-L5-01Mainboard Lantai 5 | L5-AI-03 | Analog Input 3 | 3.05 | V |
| 1825 | 06/09/2026 | 10:25:00 | MB-L5-01Mainboard Lantai 5 | L5-AI-04 | Analog Input 4 | 3.05 | V |
| 1826 | 06/09/2026 | 10:25:00 | MB-L5-01Mainboard Lantai 5 | L5-AI-05 | Analog Input 5 | 3.05 | V |
| 1827 | 06/09/2026 | 10:25:00 | MB-L5-01Mainboard Lantai 5 | L5-LUX-01 | Illuminance / LUX 1 | 612.70 | lux |
| 1828 | 06/09/2026 | 10:25:00 | MB-L5-01Mainboard Lantai 5 | L5-SHT-03-RH | SHT20 3 Humidity | 39.80 | %RH |
| 1829 | 06/09/2026 | 10:25:00 | MB-L5-01Mainboard Lantai 5 | L5-AI-06 | Analog Input 6 | 3.05 | V |
| 1830 | 06/09/2026 | 10:25:00 | MB-L5-01Mainboard Lantai 5 | L5-SHT-02-RH | SHT20 2 Humidity | 40.00 | %RH |
| 1831 | 06/09/2026 | 10:25:00 | MB-L5-01Mainboard Lantai 5 | L5-LUX-05 | Illuminance / LUX 5 | 1,840.60 | lux |
| 1832 | 06/09/2026 | 10:25:00 | MB-L5-01Mainboard Lantai 5 | L5-LUX-02 | Illuminance / LUX 2 | 2,486.20 | lux |
| 1833 | 06/09/2026 | 10:25:00 | MB-L5-01Mainboard Lantai 5 | L5-BGT-01 | Black Globe Temperature 1 | 27.50 | °C |
| 1834 | 06/09/2026 | 10:25:00 | MB-L5-01Mainboard Lantai 5 | L5-RAD-02 | Radiation 2 | 4.00 | W/m² |
| 1835 | 06/09/2026 | 10:25:00 | MB-L5-01Mainboard Lantai 5 | L5-ST-02 | Surface Temperature 2 | 30.00 | °C |
| 1836 | 06/09/2026 | 10:25:00 | MB-L5-01Mainboard Lantai 5 | L5-BGT-02 | Black Globe Temperature 2 | 26.90 | °C |
| 1837 | 06/09/2026 | 10:25:00 | MB-L5-01Mainboard Lantai 5 | L5-ST-01 | Surface Temperature 1 | 28.30 | °C |
| 1838 | 06/09/2026 | 10:25:00 | MB-L5-01Mainboard Lantai 5 | L5-SHT-02-T | SHT20 2 Temperature | 29.00 | °C |
| 1839 | 06/09/2026 | 10:25:00 | MB-L5-01Mainboard Lantai 5 | L5-HFT-01 | Heat Flow Temperature 1 | 28.90 | °C |
| 1840 | 06/09/2026 | 10:25:00 | MB-L5-01Mainboard Lantai 5 | L5-SHT-01-T | SHT20 1 Temperature | 29.70 | °C |
| 1841 | 06/09/2026 | 10:25:00 | MB-L5-01Mainboard Lantai 5 | L5-BGT-03 | Black Globe Temperature 3 | 27.50 | °C |
| 1842 | 06/09/2026 | 10:25:00 | MB-L5-01Mainboard Lantai 5 | L5-HFT-02 | Heat Flow Temperature 2 | 27.50 | °C |
| 1843 | 06/09/2026 | 10:25:00 | MB-L5-01Mainboard Lantai 5 | L5-SHT-03-T | SHT20 3 Temperature | 29.30 | °C |
| 1844 | 06/09/2026 | 10:24:00 | MB-L5-01Mainboard Lantai 5 | L5-SHT-01-RH | SHT20 1 Humidity | 38.80 | %RH |
| 1845 | 06/09/2026 | 10:24:00 | MB-L5-01Mainboard Lantai 5 | L5-AI-02 | Analog Input 2 | 3.05 | V |
| 1846 | 06/09/2026 | 10:24:00 | MB-L5-01Mainboard Lantai 5 | L5-RAD-01 | Radiation 1 | 4.00 | W/m² |
| 1847 | 06/09/2026 | 10:24:00 | MB-L5-01Mainboard Lantai 5 | L5-AI-03 | Analog Input 3 | 3.05 | V |
| 1848 | 06/09/2026 | 10:24:00 | MB-L5-01Mainboard Lantai 5 | L5-AI-04 | Analog Input 4 | 3.05 | V |
| 1849 | 06/09/2026 | 10:24:00 | MB-L5-01Mainboard Lantai 5 | L5-AI-05 | Analog Input 5 | 3.05 | V |
| 1850 | 06/09/2026 | 10:24:00 | MB-L5-01Mainboard Lantai 5 | L5-LUX-01 | Illuminance / LUX 1 | 615.50 | lux |
| 1851 | 06/09/2026 | 10:24:00 | MB-L5-01Mainboard Lantai 5 | L5-SHT-03-RH | SHT20 3 Humidity | 39.90 | %RH |
| 1852 | 06/09/2026 | 10:24:00 | MB-L5-01Mainboard Lantai 5 | L5-AI-06 | Analog Input 6 | 3.05 | V |
| 1853 | 06/09/2026 | 10:24:00 | MB-L5-01Mainboard Lantai 5 | L5-SHT-02-RH | SHT20 2 Humidity | 40.00 | %RH |
| 1854 | 06/09/2026 | 10:24:00 | MB-L5-01Mainboard Lantai 5 | L5-LUX-05 | Illuminance / LUX 5 | 1,845.00 | lux |
| 1855 | 06/09/2026 | 10:24:00 | MB-L5-01Mainboard Lantai 5 | L5-LUX-02 | Illuminance / LUX 2 | 2,483.30 | lux |
| 1856 | 06/09/2026 | 10:24:00 | MB-L5-01Mainboard Lantai 5 | L5-BGT-01 | Black Globe Temperature 1 | 27.50 | °C |
| 1857 | 06/09/2026 | 10:24:00 | MB-L5-01Mainboard Lantai 5 | L5-RAD-02 | Radiation 2 | 4.00 | W/m² |
| 1858 | 06/09/2026 | 10:24:00 | MB-L5-01Mainboard Lantai 5 | L5-ST-02 | Surface Temperature 2 | 30.30 | °C |
| 1859 | 06/09/2026 | 10:24:00 | MB-L5-01Mainboard Lantai 5 | L5-BGT-02 | Black Globe Temperature 2 | 27.00 | °C |
| 1860 | 06/09/2026 | 10:24:00 | MB-L5-01Mainboard Lantai 5 | L5-ST-01 | Surface Temperature 1 | 28.20 | °C |
| 1861 | 06/09/2026 | 10:24:00 | MB-L5-01Mainboard Lantai 5 | L5-SHT-02-T | SHT20 2 Temperature | 28.90 | °C |
| 1862 | 06/09/2026 | 10:24:00 | MB-L5-01Mainboard Lantai 5 | L5-HFT-01 | Heat Flow Temperature 1 | 28.90 | °C |
| 1863 | 06/09/2026 | 10:24:00 | MB-L5-01Mainboard Lantai 5 | L5-SHT-01-T | SHT20 1 Temperature | 29.70 | °C |
| 1864 | 06/09/2026 | 10:24:00 | MB-L5-01Mainboard Lantai 5 | L5-BGT-03 | Black Globe Temperature 3 | 27.60 | °C |
| 1865 | 06/09/2026 | 10:24:00 | MB-L5-01Mainboard Lantai 5 | L5-HFT-02 | Heat Flow Temperature 2 | 28.30 | °C |
| 1866 | 06/09/2026 | 10:24:00 | MB-L5-01Mainboard Lantai 5 | L5-SHT-03-T | SHT20 3 Temperature | 29.10 | °C |
| 1867 | 06/09/2026 | 10:24:00 | MB-L5-01Mainboard Lantai 5 | L5-AI-01 | Analog Input 1 | 3.05 | V |
| 1868 | 06/09/2026 | 10:24:00 | MB-L5-01Mainboard Lantai 5 | L5-LUX-03 | Illuminance / LUX 3 | 961.80 | lux |
| 1869 | 06/09/2026 | 10:23:00 | MB-L5-01Mainboard Lantai 5 | L5-LUX-01 | Illuminance / LUX 1 | 617.40 | lux |
| 1870 | 06/09/2026 | 10:23:00 | MB-L5-01Mainboard Lantai 5 | L5-SHT-03-RH | SHT20 3 Humidity | 39.90 | %RH |
| 1871 | 06/09/2026 | 10:23:00 | MB-L5-01Mainboard Lantai 5 | L5-AI-06 | Analog Input 6 | 3.05 | V |
| 1872 | 06/09/2026 | 10:23:00 | MB-L5-01Mainboard Lantai 5 | L5-SHT-02-RH | SHT20 2 Humidity | 40.50 | %RH |
| 1873 | 06/09/2026 | 10:23:00 | MB-L5-01Mainboard Lantai 5 | L5-LUX-05 | Illuminance / LUX 5 | 1,851.10 | lux |
| 1874 | 06/09/2026 | 10:23:00 | MB-L5-01Mainboard Lantai 5 | L5-LUX-02 | Illuminance / LUX 2 | 2,483.90 | lux |
| 1875 | 06/09/2026 | 10:23:00 | MB-L5-01Mainboard Lantai 5 | L5-BGT-01 | Black Globe Temperature 1 | 27.60 | °C |
| 1876 | 06/09/2026 | 10:23:00 | MB-L5-01Mainboard Lantai 5 | L5-RAD-02 | Radiation 2 | 4.00 | W/m² |
| 1877 | 06/09/2026 | 10:23:00 | MB-L5-01Mainboard Lantai 5 | L5-ST-02 | Surface Temperature 2 | 30.20 | °C |
| 1878 | 06/09/2026 | 10:23:00 | MB-L5-01Mainboard Lantai 5 | L5-BGT-02 | Black Globe Temperature 2 | 27.10 | °C |
| 1879 | 06/09/2026 | 10:23:00 | MB-L5-01Mainboard Lantai 5 | L5-ST-01 | Surface Temperature 1 | 28.30 | °C |
| 1880 | 06/09/2026 | 10:23:00 | MB-L5-01Mainboard Lantai 5 | L5-SHT-02-T | SHT20 2 Temperature | 28.80 | °C |
| 1881 | 06/09/2026 | 10:23:00 | MB-L5-01Mainboard Lantai 5 | L5-HFT-01 | Heat Flow Temperature 1 | 28.80 | °C |
| 1882 | 06/09/2026 | 10:23:00 | MB-L5-01Mainboard Lantai 5 | L5-SHT-01-T | SHT20 1 Temperature | 29.50 | °C |
| 1883 | 06/09/2026 | 10:23:00 | MB-L5-01Mainboard Lantai 5 | L5-BGT-03 | Black Globe Temperature 3 | 27.60 | °C |
| 1884 | 06/09/2026 | 10:23:00 | MB-L5-01Mainboard Lantai 5 | L5-HFT-02 | Heat Flow Temperature 2 | 28.10 | °C |
| 1885 | 06/09/2026 | 10:23:00 | MB-L5-01Mainboard Lantai 5 | L5-SHT-03-T | SHT20 3 Temperature | 29.10 | °C |
| 1886 | 06/09/2026 | 10:23:00 | MB-L5-01Mainboard Lantai 5 | L5-AI-01 | Analog Input 1 | 3.05 | V |
| 1887 | 06/09/2026 | 10:23:00 | MB-L5-01Mainboard Lantai 5 | L5-LUX-03 | Illuminance / LUX 3 | 965.20 | lux |
| 1888 | 06/09/2026 | 10:23:00 | MB-L5-01Mainboard Lantai 5 | L5-SHT-01-RH | SHT20 1 Humidity | 39.00 | %RH |
| 1889 | 06/09/2026 | 10:23:00 | MB-L5-01Mainboard Lantai 5 | L5-AI-02 | Analog Input 2 | 3.05 | V |
| 1890 | 06/09/2026 | 10:23:00 | MB-L5-01Mainboard Lantai 5 | L5-RAD-01 | Radiation 1 | 4.00 | W/m² |
| 1891 | 06/09/2026 | 10:23:00 | MB-L5-01Mainboard Lantai 5 | L5-AI-03 | Analog Input 3 | 3.05 | V |
| 1892 | 06/09/2026 | 10:23:00 | MB-L5-01Mainboard Lantai 5 | L5-AI-04 | Analog Input 4 | 3.05 | V |
| 1893 | 06/09/2026 | 10:23:00 | MB-L5-01Mainboard Lantai 5 | L5-AI-05 | Analog Input 5 | 3.05 | V |
| 1894 | 06/09/2026 | 10:22:00 | MB-L5-01Mainboard Lantai 5 | L5-LUX-02 | Illuminance / LUX 2 | 2,479.30 | lux |
| 1895 | 06/09/2026 | 10:22:00 | MB-L5-01Mainboard Lantai 5 | L5-BGT-01 | Black Globe Temperature 1 | 27.40 | °C |
| 1896 | 06/09/2026 | 10:22:00 | MB-L5-01Mainboard Lantai 5 | L5-RAD-02 | Radiation 2 | 4.00 | W/m² |
| 1897 | 06/09/2026 | 10:22:00 | MB-L5-01Mainboard Lantai 5 | L5-ST-02 | Surface Temperature 2 | 30.10 | °C |
| 1898 | 06/09/2026 | 10:22:00 | MB-L5-01Mainboard Lantai 5 | L5-BGT-02 | Black Globe Temperature 2 | 27.10 | °C |
| 1899 | 06/09/2026 | 10:22:00 | MB-L5-01Mainboard Lantai 5 | L5-ST-01 | Surface Temperature 1 | 28.20 | °C |
| 1900 | 06/09/2026 | 10:22:00 | MB-L5-01Mainboard Lantai 5 | L5-SHT-02-T | SHT20 2 Temperature | 28.70 | °C |
Menampilkan maksimal 100 data per halaman